메인 페이지
METAR-TAF:

METAR-TAF

공항 :

머리디언, 미시시피, 미국

위도: 32-32-47N, 경도: 088-32-35W, 고도: 96m

현재 날씨관측

예보는 18분 전, 00:56시(UTC)에 발표되었습니다.
무풍
온도 21°C
습도 73%
기압 1017 hPa
시정: 16.1km
고도 17000ft 상공 구름 많음
고도 28000ft 상공 흐림

METAR: KNMM 240056Z 00000KT 10SM BKN170 OVC280 21/16 A3004 RMK AO2 SLP181 T02060156

시각: 20:14 (01:14 UTC)

예보

예보 대상 시간: 23일 23시부터 24일 23시까지 (UTC)
여러 방향의 바람 4kt
시정 10km 이상
고도 16000ft 상공 구름 보통
고도 28000ft 상공 구름 많음
24일 1500시부터 (UTC)
남남서8kt, 순간 최대 풍속 15kt
시정: 2412m
고도 3500ft 상공 구름 조금
고도 13000ft 상공 구름 많음
고도 25000ft 상공 구름 많음

TAF: KNMM 2323/2423 VRB04KT 9999 SCT160 BKN280 542009 542909 QNH2997INS FM241500 20008G15KT 9999 FEW035 BKN130 BKN250 621305 510003 QNH2989INS AUTOMATED SENSOR METWATCH 2405 TIL 2412 T13/2412Z T26/2421Z FN20037

4,000개 이상의 공항 관측 자료 및 예보 (METAR 및 TAF 보고).

지도상에서 검색 가능한 기상관측소가 노란 점과 빨간 점으로 표시되어 있습니다.

기상관측소 명을 보려면 표시 위로 마우스를 이동하세요.

날씨 관측과 예보를 보려면 클릭하세요.

지도 변경 : 확대하려면 엑스 표시가 있는 녹색 버튼, 축소하려면 빼기 표시가 있는 녹색 버튼, 다음 페이지의 지도를 보려면 녹색 화살표를 클릭하세요.


METAR-TAF: